Time;durP1;ratioP1;P1;durP2;ratioP2;P2;SDS_P1;SDS_P2;PMS_P1;PMS_P2;Temp;Humidity;BMP_temperature;BMP_pressure;BME280_temperature;BME280_humidity;BME280_pressure;Samples;Min_cycle;Max_cycle;Signal;HPM_P1;HPM_P2
2022/04/11 00:02:14;;;;;;;5.15;3.00;;;;;;;;;;5044103;28;20458;-72
2022/04/11 00:04:41;;;;;;;7.80;2.63;;;;;;;;;;5042742;28;20060;-72
2022/04/11 00:07:08;;;;;;;8.65;3.30;;;;;;;;;;5042383;28;20765;-72
2022/04/11 00:09:35;;;;;;;9.52;2.70;;;;;;;;;;5042828;28;20044;-72
2022/04/11 00:12:04;;;;;;;11.82;3.70;;;;;;;;;;5044029;28;20680;-72
2022/04/11 00:14:32;;;;;;;7.38;3.00;;;;;;;;;;5043607;28;20681;-72
2022/04/11 00:16:59;;;;;;;6.00;2.60;;;;;;;;;;5044206;28;20446;-72
2022/04/11 00:19:26;;;;;;;7.15;3.17;;;;;;;;;;5041781;28;20044;-72
2022/04/11 00:21:53;;;;;;;8.77;2.92;;;;;;;;;;5041220;28;20102;-72
2022/04/11 00:24:20;;;;;;;4.95;2.50;;;;;;;;;;5041722;28;20044;-72
2022/04/11 00:26:47;;;;;;;5.40;2.85;;;;;;;;;;5039536;28;20076;-72
2022/04/11 00:29:16;;;;;;;8.80;3.40;;;;;;;;;;5038158;28;20049;-72
2022/04/11 00:31:43;;;;;;;8.13;2.65;;;;;;;;;;5041272;28;20045;-72
2022/04/11 00:34:10;;;;;;;6.32;3.35;;;;;;;;;;5035545;28;20057;-72
2022/04/11 00:36:38;;;;;;;7.35;3.28;;;;;;;;;;5040080;28;20432;-72
2022/04/11 00:39:05;;;;;;;10.40;2.70;;;;;;;;;;5040039;28;20054;-72
2022/04/11 00:41:32;;;;;;;5.82;2.70;;;;;;;;;;5045248;28;20098;-72
2022/04/11 00:43:59;;;;;;;6.78;2.67;;;;;;;;;;5042482;28;20057;-72
2022/04/11 00:46:28;;;;;;;7.80;3.25;;;;;;;;;;5038413;28;20056;-72
2022/04/11 00:48:55;;;;;;;10.00;3.13;;;;;;;;;;5039638;28;20496;-72
2022/04/11 00:51:23;;;;;;;9.80;3.22;;;;;;;;;;5036646;28;20483;-72
2022/04/11 00:53:51;;;;;;;6.97;2.95;;;;;;;;;;5042977;28;20126;-72
2022/04/11 00:56:19;;;;;;;9.63;3.50;;;;;;;;;;5039336;28;20049;-72
2022/04/11 00:58:47;;;;;;;9.20;3.45;;;;;;;;;;5037446;28;20053;-72
2022/04/11 01:01:15;;;;;;;8.68;3.90;;;;;;;;;;5038443;28;20139;-72
2022/04/11 01:03:44;;;;;;;8.75;3.50;;;;;;;;;;5038660;28;20475;-72
2022/04/11 01:06:11;;;;;;;7.82;3.30;;;;;;;;;;5041961;28;20052;-72
2022/04/11 01:08:39;;;;;;;7.65;2.92;;;;;;;;;;5038973;28;20049;-72
2022/04/11 01:11:07;;;;;;;16.30;3.65;;;;;;;;;;5043672;28;20419;-72
2022/04/11 01:13:34;;;;;;;7.85;3.72;;;;;;;;;;5043080;28;20123;-72
2022/04/11 01:16:03;;;;;;;13.02;4.85;;;;;;;;;;5039910;28;20061;-72
2022/04/11 01:18:33;;;;;;;5.57;3.38;;;;;;;;;;5042933;28;20056;-72
2022/04/11 01:21:02;;;;;;;5.25;2.83;;;;;;;;;;5036533;28;20049;-72
2022/04/11 01:23:30;;;;;;;4.80;3.28;;;;;;;;;;5041135;28;20057;-72
2022/04/11 01:25:58;;;;;;;6.82;3.70;;;;;;;;;;5042600;28;20053;-72
2022/04/11 01:28:25;;;;;;;9.10;3.67;;;;;;;;;;5044546;28;20136;-72
2022/04/11 01:30:53;;;;;;;7.28;3.60;;;;;;;;;;5040514;28;20049;-72
2022/04/11 01:33:21;;;;;;;8.60;3.67;;;;;;;;;;5043460;28;20079;-72
2022/04/11 01:35:48;;;;;;;9.18;3.30;;;;;;;;;;5043424;28;20060;-72
2022/04/11 01:38:17;;;;;;;8.75;3.70;;;;;;;;;;5039504;28;20053;-72
2022/04/11 01:40:52;;;;;;;10.43;3.80;;;;;;;;;;5038278;28;20052;-72
2022/04/11 01:43:19;;;;;;;5.93;3.45;;;;;;;;;;5041917;28;20049;-72
2022/04/11 01:45:47;;;;;;;6.20;3.13;;;;;;;;;;5040867;28;20064;-72
2022/04/11 01:48:14;;;;;;;7.07;3.50;;;;;;;;;;5043319;28;20508;-72
2022/04/11 01:50:41;;;;;;;9.02;3.28;;;;;;;;;;5038271;28;20672;-72
2022/04/11 01:53:09;;;;;;;8.52;3.88;;;;;;;;;;5040114;28;20110;-72
2022/04/11 01:55:36;;;;;;;6.50;3.20;;;;;;;;;;5035189;28;20115;-72
2022/04/11 01:58:05;;;;;;;5.03;2.67;;;;;;;;;;5042401;28;20056;-72
2022/04/11 02:00:33;;;;;;;5.97;2.55;;;;;;;;;;5035623;28;20036;-72
2022/04/11 02:03:00;;;;;;;5.53;2.50;;;;;;;;;;5039623;28;20455;-72
2022/04/11 02:05:31;;;;;;;5.45;2.53;;;;;;;;;;5038491;28;20115;-72
2022/04/11 02:07:58;;;;;;;5.18;2.58;;;;;;;;;;5040907;28;20064;-72
2022/04/11 02:10:26;;;;;;;3.83;2.15;;;;;;;;;;5038260;28;20041;-72
2022/04/11 02:12:53;;;;;;;3.05;2.10;;;;;;;;;;5041820;28;20143;-72
2022/04/11 02:15:22;;;;;;;4.88;2.08;;;;;;;;;;5037902;28;20056;-72
2022/04/11 02:17:50;;;;;;;3.65;2.00;;;;;;;;;;5034710;28;20061;-72
2022/04/11 02:20:17;;;;;;;4.80;1.83;;;;;;;;;;5040532;28;20111;-72
2022/04/11 02:22:45;;;;;;;3.00;1.77;;;;;;;;;;5038631;28;20060;-72
2022/04/11 02:25:12;;;;;;;4.65;1.58;;;;;;;;;;5033673;28;20084;-72
2022/04/11 02:27:40;;;;;;;3.17;1.30;;;;;;;;;;5031268;28;20696;-72
2022/04/11 02:30:08;;;;;;;3.97;1.75;;;;;;;;;;5042640;28;20041;-72
2022/04/11 02:32:36;;;;;;;3.47;1.67;;;;;;;;;;5044529;28;20064;-72
2022/04/11 02:35:04;;;;;;;4.45;1.85;;;;;;;;;;5042724;28;20107;-72
2022/04/11 02:37:31;;;;;;;2.53;1.70;;;;;;;;;;5046247;28;20048;-72
2022/04/11 02:39:58;;;;;;;3.40;1.73;;;;;;;;;;5043512;28;20065;-72
2022/04/11 02:42:25;;;;;;;4.00;1.50;;;;;;;;;;5036354;28;20056;-72
2022/04/11 02:44:53;;;;;;;3.53;1.73;;;;;;;;;;5039254;28;20099;-72
2022/04/11 02:47:21;;;;;;;2.10;1.30;;;;;;;;;;5042800;28;20057;-72
2022/04/11 02:49:49;;;;;;;2.38;1.50;;;;;;;;;;5033663;28;20484;-72
2022/04/11 02:52:17;;;;;;;2.92;1.30;;;;;;;;;;5041361;28;20053;-72
2022/04/11 02:54:44;;;;;;;1.40;1.10;;;;;;;;;;5043018;28;20053;-72
2022/04/11 02:57:11;;;;;;;2.53;1.52;;;;;;;;;;5048808;28;20130;-72
2022/04/11 02:59:38;;;;;;;5.03;1.50;;;;;;;;;;5042160;28;20057;-72
2022/04/11 03:02:06;;;;;;;5.78;2.90;;;;;;;;;;5041573;28;20076;-72
2022/04/11 03:04:33;;;;;;;5.47;1.58;;;;;;;;;;5039203;28;20467;-72
2022/04/11 03:07:01;;;;;;;5.90;1.65;;;;;;;;;;5043481;28;20060;-72
2022/04/11 03:09:29;;;;;;;6.50;1.90;;;;;;;;;;5037912;28;20474;-72
2022/04/11 03:11:56;;;;;;;4.05;2.03;;;;;;;;;;5044198;28;20064;-72
2022/04/11 03:14:23;;;;;;;4.60;2.28;;;;;;;;;;5045831;28;20037;-72
2022/04/11 03:16:51;;;;;;;3.75;1.92;;;;;;;;;;5046592;28;20052;-72
2022/04/11 03:19:18;;;;;;;6.28;2.30;;;;;;;;;;5038295;28;20049;-72
2022/04/11 03:21:45;;;;;;;4.38;2.40;;;;;;;;;;5041837;28;20567;-72
2022/04/11 03:24:14;;;;;;;3.47;2.47;;;;;;;;;;5037490;28;20057;-72
2022/04/11 03:26:41;;;;;;;4.70;2.20;;;;;;;;;;5044383;28;20041;-72
2022/04/11 03:29:08;;;;;;;11.90;2.85;;;;;;;;;;5041450;28;20049;-72
2022/04/11 03:31:35;;;;;;;5.50;2.72;;;;;;;;;;5046988;28;20197;-72
2022/04/11 03:34:03;;;;;;;5.38;3.10;;;;;;;;;;5043398;28;20114;-72
2022/04/11 03:36:30;;;;;;;6.60;2.85;;;;;;;;;;5045994;28;20407;-72
2022/04/11 03:38:57;;;;;;;7.05;3.15;;;;;;;;;;5046483;28;20052;-72
2022/04/11 03:41:26;;;;;;;6.80;3.40;;;;;;;;;;5046324;28;20138;-72
2022/04/11 03:43:53;;;;;;;7.22;2.88;;;;;;;;;;5036841;28;20057;-72
2022/04/11 03:46:20;;;;;;;5.70;3.22;;;;;;;;;;5048959;28;20477;-72
2022/04/11 03:48:48;;;;;;;6.03;3.00;;;;;;;;;;5037584;28;20057;-72
2022/04/11 03:51:15;;;;;;;6.57;2.78;;;;;;;;;;5034881;28;20396;-72
2022/04/11 03:53:42;;;;;;;5.13;2.55;;;;;;;;;;5039838;28;20527;-72
2022/04/11 03:56:09;;;;;;;6.57;2.50;;;;;;;;;;5045979;28;20110;-72
2022/04/11 03:58:38;;;;;;;7.00;2.75;;;;;;;;;;5038803;28;20064;-72
2022/04/11 04:01:05;;;;;;;6.22;3.15;;;;;;;;;;5046504;28;20044;-72
2022/04/11 04:03:32;;;;;;;5.95;3.28;;;;;;;;;;5042618;28;20075;-72
2022/04/11 04:06:00;;;;;;;5.07;3.00;;;;;;;;;;5041190;28;20053;-72
2022/04/11 04:08:27;;;;;;;8.90;3.75;;;;;;;;;;5044055;28;20060;-72
2022/04/11 04:10:54;;;;;;;7.40;3.30;;;;;;;;;;5038014;28;20060;-72
2022/04/11 04:13:21;;;;;;;7.07;3.30;;;;;;;;;;5038887;28;20119;-72
2022/04/11 04:15:50;;;;;;;8.02;3.58;;;;;;;;;;5040830;28;20516;-72
2022/04/11 04:18:17;;;;;;;10.82;3.67;;;;;;;;;;5036187;28;20625;-72
2022/04/11 04:20:44;;;;;;;5.15;3.15;;;;;;;;;;5030092;28;20103;-72
2022/04/11 04:23:11;;;;;;;8.63;3.50;;;;;;;;;;5041818;28;20056;-72
2022/04/11 04:25:39;;;;;;;9.30;3.25;;;;;;;;;;5038733;28;20166;-72
2022/04/11 04:28:06;;;;;;;6.13;2.97;;;;;;;;;;5042737;28;20052;-72
2022/04/11 04:30:33;;;;;;;6.03;3.50;;;;;;;;;;5048643;28;20384;-72
2022/04/11 04:33:02;;;;;;;6.40;2.70;;;;;;;;;;5046557;28;20118;-72
2022/04/11 04:35:29;;;;;;;7.10;3.13;;;;;;;;;;5047583;28;20064;-72
2022/04/11 04:37:56;;;;;;;7.47;2.97;;;;;;;;;;5037607;28;20122;-72
2022/04/11 04:40:23;;;;;;;5.93;2.90;;;;;;;;;;5052319;28;20037;-72
2022/04/11 04:42:51;;;;;;;15.73;3.28;;;;;;;;;;5039911;28;20059;-72
2022/04/11 04:45:18;;;;;;;8.30;3.35;;;;;;;;;;5037338;28;20063;-72
2022/04/11 04:47:45;;;;;;;9.90;3.13;;;;;;;;;;5047120;28;20053;-73
2022/04/11 04:50:14;;;;;;;4.72;2.72;;;;;;;;;;5045169;28;20411;-73
2022/04/11 04:52:41;;;;;;;5.93;3.38;;;;;;;;;;5039240;28;20109;-73
2022/04/11 04:55:09;;;;;;;6.55;3.60;;;;;;;;;;5046120;28;20060;-72
2022/04/11 04:57:36;;;;;;;6.75;4.38;;;;;;;;;;5039750;28;20163;-72
2022/04/11 05:00:04;;;;;;;9.70;5.90;;;;;;;;;;5053669;28;20109;-72
2022/04/11 05:02:35;;;;;;;11.43;6.95;;;;;;;;;;5040848;28;20053;-72
2022/04/11 05:05:07;;;;;;;8.80;5.03;;;;;;;;;;5048588;28;20439;-72
2022/04/11 05:07:35;;;;;;;10.55;4.53;;;;;;;;;;5043368;28;20045;-72
2022/04/11 05:10:04;;;;;;;10.50;4.07;;;;;;;;;;5046214;28;20055;-72
2022/04/11 05:12:31;;;;;;;7.60;3.95;;;;;;;;;;5041487;28;20045;-72
2022/04/11 05:14:58;;;;;;;7.57;3.45;;;;;;;;;;5034194;28;20049;-72
2022/04/11 05:17:26;;;;;;;8.40;3.92;;;;;;;;;;5050873;28;20045;-72
2022/04/11 05:19:53;;;;;;;7.00;3.00;;;;;;;;;;5033743;28;20117;-73
2022/04/11 05:22:20;;;;;;;8.30;3.33;;;;;;;;;;5038045;28;20048;-73
2022/04/11 05:24:49;;;;;;;6.22;2.92;;;;;;;;;;5037030;28;20809;-73
2022/04/11 05:27:16;;;;;;;6.80;3.08;;;;;;;;;;5040645;28;20056;-72
2022/04/11 05:29:43;;;;;;;7.10;3.28;;;;;;;;;;5037823;28;20110;-73
2022/04/11 05:32:10;;;;;;;6.80;3.00;;;;;;;;;;5040528;28;20045;-73
2022/04/11 05:34:38;;;;;;;10.85;3.50;;;;;;;;;;5042351;28;20848;-73
2022/04/11 05:37:06;;;;;;;7.85;3.53;;;;;;;;;;5038331;28;20053;-72
2022/04/11 05:39:33;;;;;;;7.13;3.33;;;;;;;;;;5039241;28;20053;-72
2022/04/11 05:42:01;;;;;;;10.45;3.20;;;;;;;;;;5039984;28;20056;-72
2022/04/11 05:44:29;;;;;;;11.95;3.65;;;;;;;;;;5039885;28;20052;-72
2022/04/11 05:46:56;;;;;;;5.35;2.95;;;;;;;;;;5036810;28;20065;-72
2022/04/11 05:49:23;;;;;;;10.27;3.45;;;;;;;;;;5038440;28;20829;-72
2022/04/11 05:51:51;;;;;;;9.65;3.08;;;;;;;;;;5030916;28;20589;-72
2022/04/11 05:54:18;;;;;;;8.30;2.67;;;;;;;;;;5038957;28;20056;-72
2022/04/11 05:56:45;;;;;;;9.32;3.40;;;;;;;;;;5046210;28;20048;-72
2022/04/11 05:59:14;;;;;;;5.97;3.08;;;;;;;;;;5035992;28;20138;-72
2022/04/11 06:01:42;;;;;;;8.90;3.00;;;;;;;;;;5037676;28;20103;-72
2022/04/11 06:04:09;;;;;;;6.47;3.00;;;;;;;;;;5037223;28;20051;-72
2022/04/11 06:06:36;;;;;;;11.15;3.10;;;;;;;;;;5044634;28;20055;-72
2022/04/11 06:09:04;;;;;;;8.68;3.22;;;;;;;;;;5036426;28;20136;-72
2022/04/11 06:11:31;;;;;;;7.32;3.20;;;;;;;;;;5039573;28;20777;-72
2022/04/11 06:13:58;;;;;;;9.63;3.65;;;;;;;;;;5041734;28;20106;-72
2022/04/11 06:16:27;;;;;;;8.52;2.78;;;;;;;;;;5039154;28;20053;-72
2022/04/11 06:18:54;;;;;;;10.38;2.97;;;;;;;;;;5040036;28;20053;-72
2022/04/11 06:21:22;;;;;;;5.90;2.90;;;;;;;;;;5043606;28;20510;-72
2022/04/11 06:23:49;;;;;;;8.68;2.95;;;;;;;;;;5038099;28;20049;-72
2022/04/11 06:26:16;;;;;;;5.93;2.90;;;;;;;;;;5049073;28;20115;-72
2022/04/11 06:28:43;;;;;;;7.38;2.75;;;;;;;;;;5038444;28;20049;-72
2022/04/11 06:31:10;;;;;;;7.35;3.00;;;;;;;;;;5033922;28;20147;-72
2022/04/11 06:33:39;;;;;;;6.63;3.15;;;;;;;;;;5041778;28;20084;-72
2022/04/11 06:36:07;;;;;;;7.63;3.17;;;;;;;;;;5040047;28;20491;-72
2022/04/11 06:38:34;;;;;;;8.60;3.17;;;;;;;;;;5038039;28;20056;-72
2022/04/11 06:41:03;;;;;;;9.98;3.47;;;;;;;;;;5045783;28;20486;-72
2022/04/11 06:43:30;;;;;;;8.05;2.97;;;;;;;;;;5044329;28;20446;-72
2022/04/11 06:45:59;;;;;;;7.65;2.85;;;;;;;;;;5043163;28;20917;-71
2022/04/11 06:48:26;;;;;;;8.45;3.25;;;;;;;;;;5045013;28;20735;-71
2022/04/11 06:50:55;;;;;;;10.38;3.63;;;;;;;;;;5041358;28;20049;-72
2022/04/11 06:53:22;;;;;;;8.15;3.10;;;;;;;;;;5042541;28;20057;-72
2022/04/11 06:55:49;;;;;;;9.40;3.08;;;;;;;;;;5043303;28;20885;-72
2022/04/11 06:58:17;;;;;;;9.10;3.17;;;;;;;;;;5035377;28;20049;-72
2022/04/11 07:00:44;;;;;;;11.18;2.80;;;;;;;;;;5037264;28;20454;-72
2022/04/11 07:03:11;;;;;;;8.88;3.20;;;;;;;;;;5042437;28;20053;-72
2022/04/11 07:05:38;;;;;;;8.07;2.83;;;;;;;;;;5035937;28;20049;-72
2022/04/11 07:08:08;;;;;;;6.85;2.75;;;;;;;;;;5032300;28;20065;-72
2022/04/11 07:10:37;;;;;;;5.00;2.67;;;;;;;;;;5037209;28;20126;-72
2022/04/11 07:13:04;;;;;;;7.95;2.95;;;;;;;;;;5033206;28;20525;-73
2022/04/11 07:15:32;;;;;;;7.70;2.88;;;;;;;;;;5038498;28;20151;-72
2022/04/11 07:17:59;;;;;;;7.93;3.53;;;;;;;;;;5040724;28;20060;-72
2022/04/11 07:20:26;;;;;;;10.02;3.13;;;;;;;;;;5051981;28;20125;-72
2022/04/11 07:22:54;;;;;;;8.05;2.53;;;;;;;;;;5041623;28;20051;-72
2022/04/11 07:25:23;;;;;;;8.05;2.70;;;;;;;;;;5047358;28;20060;-72
2022/04/11 07:27:50;;;;;;;10.13;2.40;;;;;;;;;;5046207;28;20143;-72
2022/04/11 07:30:18;;;;;;;6.95;2.60;;;;;;;;;;5043481;28;20053;-72
2022/04/11 07:32:45;;;;;;;7.47;2.22;;;;;;;;;;5045157;28;20063;-72
2022/04/11 07:35:12;;;;;;;9.00;2.30;;;;;;;;;;5044480;28;20123;-72
2022/04/11 07:37:39;;;;;;;10.07;2.45;;;;;;;;;;5038477;28;20061;-72
2022/04/11 07:40:07;;;;;;;12.05;2.25;;;;;;;;;;5046708;28;20550;-72
2022/04/11 07:42:36;;;;;;;4.30;2.20;;;;;;;;;;5043949;28;20123;-72
2022/04/11 07:45:03;;;;;;;8.73;2.38;;;;;;;;;;5045019;28;20105;-72
2022/04/11 07:47:30;;;;;;;5.95;1.95;;;;;;;;;;5039578;28;20048;-72
2022/04/11 07:49:57;;;;;;;8.00;2.17;;;;;;;;;;5044604;28;20056;-72
2022/04/11 07:52:25;;;;;;;4.95;1.98;;;;;;;;;;5037780;28;20109;-72
2022/04/11 07:54:53;;;;;;;7.82;2.17;;;;;;;;;;5049797;28;20042;-72
2022/04/11 07:57:21;;;;;;;17.83;2.55;;;;;;;;;;5042348;28;20513;-72
2022/04/11 07:59:49;;;;;;;6.35;2.10;;;;;;;;;;5041193;28;20059;-72
2022/04/11 08:02:24;;;;;;;5.80;2.33;;;;;;;;;;5044963;28;20052;-72
2022/04/11 08:04:51;;;;;;;4.75;2.15;;;;;;;;;;5042077;28;20057;-72
2022/04/11 08:07:18;;;;;;;5.68;2.17;;;;;;;;;;5041058;28;20057;-72
2022/04/11 08:09:45;;;;;;;5.35;1.85;;;;;;;;;;5041914;28;20056;-72
2022/04/11 08:12:12;;;;;;;6.30;2.00;;;;;;;;;;5041794;28;20045;-72
2022/04/11 08:14:40;;;;;;;6.60;2.17;;;;;;;;;;5037075;28;20056;-72
2022/04/11 08:17:09;;;;;;;12.68;2.55;;;;;;;;;;5040630;28;20570;-72
2022/04/11 08:19:36;;;;;;;9.43;2.30;;;;;;;;;;5045507;28;20063;-72
2022/04/11 08:22:03;;;;;;;5.43;2.30;;;;;;;;;;5045953;28;20052;-72
2022/04/11 08:24:31;;;;;;;10.25;1.95;;;;;;;;;;5036399;28;20503;-72
2022/04/11 08:26:58;;;;;;;10.57;2.40;;;;;;;;;;5040967;28;20155;-72
2022/04/11 08:29:25;;;;;;;6.43;1.75;;;;;;;;;;5036944;28;20080;-72
2022/04/11 08:31:53;;;;;;;11.05;1.77;;;;;;;;;;5040917;28;20049;-72
2022/04/11 08:34:21;;;;;;;5.28;2.10;;;;;;;;;;5043005;28;20044;-72
2022/04/11 08:36:48;;;;;;;6.57;1.75;;;;;;;;;;5044422;28;20056;-72
2022/04/11 08:39:17;;;;;;;5.07;1.40;;;;;;;;;;5036028;28;20050;-72
2022/04/11 08:41:44;;;;;;;6.05;1.83;;;;;;;;;;5041282;28;20049;-72
2022/04/11 08:44:13;;;;;;;7.47;1.80;;;;;;;;;;5041199;28;20064;-72
2022/04/11 08:46:41;;;;;;;5.47;2.00;;;;;;;;;;5042105;28;20053;-72
2022/04/11 08:49:08;;;;;;;5.25;1.40;;;;;;;;;;5042405;28;20053;-72
2022/04/11 08:51:37;;;;;;;7.32;1.77;;;;;;;;;;5039642;28;20408;-72
2022/04/11 08:54:05;;;;;;;5.72;1.60;;;;;;;;;;5040929;28;20093;-72
2022/04/11 08:56:33;;;;;;;4.30;1.30;;;;;;;;;;5042124;28;20044;-72
2022/04/11 08:59:01;;;;;;;5.88;1.50;;;;;;;;;;5038415;28;20057;-72
2022/04/11 09:01:28;;;;;;;6.07;1.58;;;;;;;;;;5037848;28;20045;-72
2022/04/11 09:03:55;;;;;;;3.95;1.65;;;;;;;;;;5040645;28;20121;-72
2022/04/11 09:06:24;;;;;;;5.32;1.25;;;;;;;;;;5034323;28;20056;-72
2022/04/11 09:08:53;;;;;;;7.53;1.38;;;;;;;;;;5036929;28;20480;-72
2022/04/11 09:11:34;;;;;;;4.53;1.08;;;;;;;;;;5041993;28;20115;-72
2022/04/11 09:14:02;;;;;;;3.38;1.10;;;;;;;;;;5038962;28;20081;-72
2022/04/11 09:16:30;;;;;;;3.25;1.15;;;;;;;;;;5043481;28;20053;-72
2022/04/11 09:18:57;;;;;;;4.50;1.40;;;;;;;;;;5042356;28;20128;-72
2022/04/11 09:21:25;;;;;;;7.93;1.30;;;;;;;;;;5049914;28;20049;-72
2022/04/11 09:24:13;;;;;;;6.78;1.60;;;;;;;;;;5038357;28;20053;-72
2022/04/11 09:26:41;;;;;;;5.07;1.30;;;;;;;;;;5040986;28;20053;-72
2022/04/11 09:29:08;;;;;;;2.65;1.10;;;;;;;;;;5044087;28;20055;-73
2022/04/11 09:31:36;;;;;;;2.50;1.20;;;;;;;;;;5042518;28;20504;-73
2022/04/11 09:34:14;;;;;;;3.50;1.33;;;;;;;;;;5031786;28;20049;-73
2022/04/11 09:36:48;;;;;;;3.30;1.48;;;;;;;;;;5041013;28;20049;-73
2022/04/11 09:39:18;;;;;;;4.07;1.80;;;;;;;;;;5041136;28;20057;-72
2022/04/11 09:41:46;;;;;;;4.50;1.33;;;;;;;;;;5041632;28;20060;-71
2022/04/11 09:44:26;;;;;;;2.58;1.35;;;;;;;;;;5042670;28;20182;-71
2022/04/11 09:46:54;;;;;;;7.03;1.58;;;;;;;;;;5043713;28;20049;-70
2022/04/11 09:49:21;;;;;;;8.20;1.77;;;;;;;;;;5047814;28;20056;-70
2022/04/11 09:52:08;;;;;;;4.80;1.67;;;;;;;;;;5032460;28;20060;-71
2022/04/11 09:54:38;;;;;;;5.68;1.73;;;;;;;;;;5044749;28;20049;-71
2022/04/11 09:57:06;;;;;;;5.25;1.70;;;;;;;;;;5034402;28;20053;-71
2022/04/11 09:59:33;;;;;;;4.72;1.70;;;;;;;;;;5044132;28;20398;-71
2022/04/11 10:02:00;;;;;;;4.47;1.85;;;;;;;;;;5036145;28;20049;-73
2022/04/11 10:04:28;;;;;;;3.90;1.52;;;;;;;;;;5039521;28;20111;-73
2022/04/11 10:06:56;;;;;;;6.10;1.77;;;;;;;;;;5035357;28;20051;-72
2022/04/11 10:09:24;;;;;;;7.90;2.17;;;;;;;;;;5037193;28;20080;-72
2022/04/11 10:11:53;;;;;;;4.80;2.25;;;;;;;;;;5037397;28;20080;-72
2022/04/11 10:14:26;;;;;;;5.47;1.70;;;;;;;;;;5040104;28;20053;-72
2022/04/11 10:16:54;;;;;;;5.20;1.85;;;;;;;;;;5038421;28;20423;-72
2022/04/11 10:19:25;;;;;;;8.05;1.70;;;;;;;;;;5037472;28;20111;-72
2022/04/11 10:21:54;;;;;;;6.13;2.20;;;;;;;;;;5038903;28;20049;-72
2022/04/11 10:24:32;;;;;;;4.60;1.60;;;;;;;;;;5035670;28;20514;-72
2022/04/11 10:27:15;;;;;;;5.65;1.83;;;;;;;;;;5036203;28;20056;-72
2022/04/11 10:29:43;;;;;;;8.00;2.28;;;;;;;;;;5035566;28;20045;-72
2022/04/11 10:32:11;;;;;;;3.47;1.77;;;;;;;;;;5034479;28;20125;-72
2022/04/11 10:34:46;;;;;;;3.65;1.65;;;;;;;;;;5037262;28;20049;-72
2022/04/11 10:37:13;;;;;;;4.20;1.70;;;;;;;;;;5037257;28;20111;-72
2022/04/11 10:39:43;;;;;;;5.65;2.10;;;;;;;;;;5039087;28;20118;-72
2022/04/11 10:42:23;;;;;;;5.05;1.83;;;;;;;;;;5042402;28;20053;-72
2022/04/11 10:44:53;;;;;;;5.93;2.25;;;;;;;;;;5042093;28;20148;-73
2022/04/11 10:47:26;;;;;;;5.55;2.17;;;;;;;;;;5037037;28;20062;-72
2022/04/11 10:50:13;;;;;;;6.50;2.40;;;;;;;;;;5039512;28;20054;-72
2022/04/11 10:52:42;;;;;;;6.68;2.38;;;;;;;;;;5044259;28;20037;-72
2022/04/11 10:55:09;;;;;;;7.65;2.20;;;;;;;;;;5050025;28;20048;-73
2022/04/11 10:57:39;;;;;;;4.97;2.20;;;;;;;;;;5044907;28;20098;-73
2022/04/11 11:00:07;;;;;;;4.97;1.80;;;;;;;;;;5046624;28;20060;-73
2022/04/11 11:02:53;;;;;;;7.18;2.42;;;;;;;;;;5049893;28;20052;-73
2022/04/11 11:05:24;;;;;;;6.05;2.25;;;;;;;;;;5040371;28;20267;-72
2022/04/11 11:08:12;;;;;;;5.18;1.90;;;;;;;;;;5043192;28;20048;-72
2022/04/11 11:10:42;;;;;;;6.13;2.00;;;;;;;;;;5045870;28;20072;-72
2022/04/11 11:13:27;;;;;;;6.80;2.25;;;;;;;;;;5047007;28;20144;-72
2022/04/11 11:15:54;;;;;;;11.00;2.22;;;;;;;;;;5042625;28;20057;-73
2022/04/11 11:18:21;;;;;;;6.75;2.03;;;;;;;;;;5042757;28;20065;-73
2022/04/11 11:20:52;;;;;;;6.15;1.92;;;;;;;;;;5044468;28;20056;-72
2022/04/11 11:23:25;;;;;;;7.22;2.38;;;;;;;;;;5045151;28;20138;-72
2022/04/11 11:25:53;;;;;;;4.32;1.73;;;;;;;;;;5040812;28;20577;-72
2022/04/11 11:28:20;;;;;;;6.00;2.25;;;;;;;;;;5041806;28;20839;-72
2022/04/11 11:30:49;;;;;;;4.80;2.20;;;;;;;;;;5042870;28;20057;-73
2022/04/11 11:33:17;;;;;;;6.38;2.10;;;;;;;;;;5038173;28;20049;-72
2022/04/11 11:35:48;;;;;;;5.13;2.20;;;;;;;;;;5040223;28;20056;-73
2022/04/11 11:38:16;;;;;;;4.63;2.10;;;;;;;;;;5042197;28;20049;-73
2022/04/11 11:40:44;;;;;;;6.18;2.00;;;;;;;;;;5042445;28;20114;-73
2022/04/11 11:43:14;;;;;;;6.93;2.30;;;;;;;;;;5052528;28;20044;-73
2022/04/11 11:45:42;;;;;;;7.43;1.92;;;;;;;;;;5045744;28;20044;-73
2022/04/11 11:48:27;;;;;;;6.63;2.20;;;;;;;;;;5043675;28;20082;-73
2022/04/11 11:50:56;;;;;;;5.35;2.30;;;;;;;;;;5044088;28;20052;-70
2022/04/11 11:53:24;;;;;;;6.97;2.35;;;;;;;;;;5048374;28;20044;-70
2022/04/11 11:55:55;;;;;;;6.05;2.33;;;;;;;;;;5047142;28;20049;-70
2022/04/11 11:58:23;;;;;;;4.80;2.20;;;;;;;;;;5043246;28;20144;-70
2022/04/11 12:00:50;;;;;;;4.32;2.00;;;;;;;;;;5045736;28;20052;-73
2022/04/11 12:06:04;;;;;;;7.45;2.70;;;;;;;;;;5039184;28;20198;-73
2022/04/11 12:08:32;;;;;;;8.55;2.63;;;;;;;;;;5048129;28;20102;-73
2022/04/11 12:11:00;;;;;;;6.43;2.72;;;;;;;;;;5051568;28;20533;-73
2022/04/11 12:13:28;;;;;;;8.93;2.47;;;;;;;;;;5049402;28;20538;-73
2022/04/11 12:16:06;;;;;;;6.60;2.58;;;;;;;;;;5045286;28;20057;-73
2022/04/11 12:18:47;;;;;;;6.88;2.63;;;;;;;;;;5044523;28;20052;-73
2022/04/11 12:21:16;;;;;;;4.85;2.10;;;;;;;;;;5050731;28;20048;-74
2022/04/11 12:23:47;;;;;;;3.70;2.45;;;;;;;;;;5047759;28;20645;-73
2022/04/11 12:26:24;;;;;;;8.38;2.55;;;;;;;;;;5045028;28;20384;-73
2022/04/11 12:28:51;;;;;;;7.43;2.70;;;;;;;;;;5046678;28;20064;-73
2022/04/11 12:31:19;;;;;;;6.03;2.85;;;;;;;;;;5038884;28;20064;-73
2022/04/11 12:33:49;;;;;;;8.95;3.05;;;;;;;;;;5042314;28;20095;-73
2022/04/11 12:36:19;;;;;;;8.95;3.40;;;;;;;;;;5040037;28;20127;-73
2022/04/11 12:38:48;;;;;;;8.60;3.08;;;;;;;;;;5054556;28;20139;-73
2022/04/11 12:41:39;;;;;;;4.72;2.72;;;;;;;;;;5045340;28;20053;-73
2022/04/11 12:44:10;;;;;;;6.60;2.90;;;;;;;;;;5026545;28;20060;-73
2022/04/11 12:46:39;;;;;;;4.63;2.75;;;;;;;;;;5046115;28;20510;-73
2022/04/11 12:49:07;;;;;;;5.72;2.58;;;;;;;;;;5039801;28;20052;-73
2022/04/11 12:51:35;;;;;;;6.78;2.50;;;;;;;;;;5047576;28;20054;-73
2022/04/11 12:54:07;;;;;;;6.20;2.60;;;;;;;;;;5046930;28;20630;-73
2022/04/11 12:56:36;;;;;;;5.00;2.58;;;;;;;;;;5049285;28;20106;-74
2022/04/11 12:59:03;;;;;;;6.13;2.67;;;;;;;;;;5042185;28;20828;-74
2022/04/11 13:01:50;;;;;;;4.95;2.65;;;;;;;;;;5045202;28;20045;-74
2022/04/11 13:04:17;;;;;;;5.60;2.67;;;;;;;;;;5038834;28;20068;-74
2022/04/11 13:06:47;;;;;;;5.20;2.65;;;;;;;;;;5043158;28;20080;-73
2022/04/11 13:09:15;;;;;;;8.32;3.00;;;;;;;;;;5048131;28;20064;-71
2022/04/11 13:11:42;;;;;;;7.38;2.97;;;;;;;;;;5039037;28;20052;-71
2022/04/11 13:14:09;;;;;;;5.65;2.60;;;;;;;;;;5038918;28;20107;-73
2022/04/11 13:19:22;;;;;;;3.90;2.30;;;;;;;;;;5038264;28;20049;-73
2022/04/11 13:21:51;;;;;;;6.32;3.00;;;;;;;;;;5041587;28;20466;-73
2022/04/11 13:24:18;;;;;;;9.18;2.75;;;;;;;;;;5043122;28;20521;-73
2022/04/11 13:26:46;;;;;;;5.15;2.03;;;;;;;;;;5035648;28;20049;-73
2022/04/11 13:29:13;;;;;;;6.65;2.67;;;;;;;;;;5036913;28;20107;-73
2022/04/11 13:31:40;;;;;;;6.90;2.45;;;;;;;;;;5039910;28;20053;-73
2022/04/11 13:34:08;;;;;;;7.50;2.75;;;;;;;;;;5040189;28;20523;-73
2022/04/11 13:36:35;;;;;;;5.70;2.70;;;;;;;;;;5041462;28;20060;-73
2022/04/11 13:39:04;;;;;;;6.40;2.78;;;;;;;;;;5038610;28;20053;-73
2022/04/11 13:41:33;;;;;;;5.32;2.63;;;;;;;;;;5038662;28;20685;-73
2022/04/11 13:44:01;;;;;;;7.18;2.65;;;;;;;;;;5044394;28;20055;-73
2022/04/11 13:46:28;;;;;;;6.68;2.85;;;;;;;;;;5038318;28;20110;-73
2022/04/11 13:48:55;;;;;;;7.25;2.70;;;;;;;;;;5041210;28;20057;-73
2022/04/11 13:51:22;;;;;;;4.85;2.60;;;;;;;;;;5039871;28;20065;-73
2022/04/11 13:53:50;;;;;;;5.75;2.65;;;;;;;;;;5041762;28;20060;-73
2022/04/11 13:56:18;;;;;;;6.45;2.78;;;;;;;;;;5034279;28;20158;-73
2022/04/11 13:58:46;;;;;;;4.38;2.60;;;;;;;;;;5036502;28;20130;-73
2022/04/11 14:01:13;;;;;;;4.63;2.75;;;;;;;;;;5037876;28;20049;-73
2022/04/11 14:03:40;;;;;;;4.55;2.60;;;;;;;;;;5036083;28;20064;-73
2022/04/11 14:06:08;;;;;;;4.72;2.85;;;;;;;;;;5035215;28;20059;-73
2022/04/11 14:08:35;;;;;;;4.97;2.78;;;;;;;;;;5039373;28;20063;-73
2022/04/11 14:11:03;;;;;;;4.60;2.78;;;;;;;;;;5043286;28;20052;-73
2022/04/11 14:13:34;;;;;;;5.45;2.83;;;;;;;;;;5037964;28;20162;-73
2022/04/11 14:16:01;;;;;;;6.50;2.95;;;;;;;;;;5041312;28;20566;-74
2022/04/11 14:18:29;;;;;;;6.85;2.92;;;;;;;;;;5039290;28;20057;-73
2022/04/11 14:20:56;;;;;;;6.20;2.90;;;;;;;;;;5037060;28;20053;-73
2022/04/11 14:23:24;;;;;;;7.00;2.83;;;;;;;;;;5042465;28;20054;-73
2022/04/11 14:25:52;;;;;;;7.20;2.60;;;;;;;;;;5036746;28;20422;-73
2022/04/11 14:28:20;;;;;;;5.97;2.63;;;;;;;;;;5037450;28;20114;-73
2022/04/11 14:30:49;;;;;;;11.05;3.13;;;;;;;;;;5041644;28;20114;-73
2022/04/11 14:33:16;;;;;;;7.22;2.83;;;;;;;;;;5044608;28;20142;-72
2022/04/11 14:35:44;;;;;;;4.68;2.67;;;;;;;;;;5042472;28;20053;-72
2022/04/11 14:38:12;;;;;;;5.75;3.10;;;;;;;;;;5042882;28;20088;-72
2022/04/11 14:40:40;;;;;;;4.60;2.75;;;;;;;;;;5036839;28;20045;-72
2022/04/11 14:43:08;;;;;;;5.22;2.90;;;;;;;;;;5039914;28;20053;-71
2022/04/11 14:45:35;;;;;;;5.30;3.08;;;;;;;;;;5038102;28;20115;-71
2022/04/11 14:48:04;;;;;;;6.28;2.50;;;;;;;;;;5036878;28;20049;-71
2022/04/11 14:50:31;;;;;;;5.30;2.88;;;;;;;;;;5036492;28;20046;-71
2022/04/11 14:52:58;;;;;;;5.13;2.80;;;;;;;;;;5043676;28;20471;-71
2022/04/11 14:55:25;;;;;;;5.68;2.88;;;;;;;;;;5032773;28;20087;-71